createdAt,value
2022-09-10T00:01:29.810Z,10.30
2022-09-10T00:03:57.784Z,10.60
2022-09-10T00:06:27.792Z,9.70
2022-09-10T00:08:59.201Z,8.30
2022-09-10T00:11:32.235Z,8.90
2022-09-10T00:14:00.958Z,9.10
2022-09-10T00:16:28.565Z,10.30
2022-09-10T00:18:57.413Z,10.20
2022-09-10T00:21:24.355Z,9.00
2022-09-10T00:23:51.133Z,8.90
2022-09-10T00:26:24.671Z,9.10
2022-09-10T00:28:52.965Z,9.40
2022-09-10T00:31:22.085Z,7.80
2022-09-10T00:33:50.818Z,8.50
2022-09-10T00:36:30.537Z,8.20
2022-09-10T00:39:00.601Z,9.10
2022-09-10T00:41:27.902Z,9.00
2022-09-10T00:44:02.799Z,8.20
2022-09-10T00:46:43.591Z,7.40
2022-09-10T00:49:21.620Z,7.70
2022-09-10T00:51:52.574Z,8.70
2022-09-10T00:54:24.381Z,7.80
2022-09-10T00:56:53.727Z,9.10
2022-09-10T00:59:23.836Z,7.60
2022-09-10T01:01:50.760Z,7.30
2022-09-10T01:04:17.837Z,8.60
2022-09-10T01:06:46.691Z,9.30
2022-09-10T01:09:15.317Z,7.80
2022-09-10T01:11:57.623Z,7.60
2022-09-10T01:14:51.868Z,8.80
2022-09-10T01:17:25.933Z,7.70
2022-09-10T01:20:30.485Z,7.20
2022-09-10T01:23:17.033Z,6.80
2022-09-10T01:26:03.604Z,6.70
2022-09-10T01:28:49.594Z,6.50
2022-09-10T01:31:31.626Z,6.50
2022-09-10T01:34:17.006Z,6.30
2022-09-10T01:36:49.227Z,6.40
2022-09-10T01:39:20.949Z,6.90
2022-09-10T01:41:52.955Z,6.70
2022-09-10T01:44:47.681Z,8.00
2022-09-10T01:47:40.327Z,7.00
2022-09-10T01:50:10.108Z,7.10
2022-09-10T01:52:47.408Z,6.00
2022-09-10T01:55:45.242Z,5.20
2022-09-10T01:58:19.177Z,5.00
2022-09-10T02:01:07.458Z,5.50
2022-09-10T02:03:37.585Z,5.70
2022-09-10T02:06:09.647Z,5.40
2022-09-10T02:08:43.196Z,6.80
2022-09-10T02:11:12.932Z,5.70
2022-09-10T02:13:43.236Z,5.10
2022-09-10T02:16:31.437Z,5.60
2022-09-10T02:19:00.882Z,5.70
2022-09-10T02:21:28.342Z,5.30
2022-09-10T02:24:00.040Z,6.10
2022-09-10T02:26:27.866Z,6.40
2022-09-10T02:28:54.980Z,6.50
2022-09-10T02:31:22.867Z,7.00
2022-09-10T02:33:49.833Z,6.60
2022-09-10T02:36:16.759Z,6.70
2022-09-10T02:38:44.571Z,6.40
2022-09-10T02:41:11.754Z,6.80
2022-09-10T02:43:38.865Z,7.40
2022-09-10T02:46:07.598Z,8.00
2022-09-10T02:48:36.103Z,6.70
2022-09-10T02:51:03.542Z,7.40
2022-09-10T02:53:31.861Z,8.60
2022-09-10T02:56:03.400Z,9.50
2022-09-10T02:58:34.332Z,7.80
2022-09-10T03:01:28.802Z,8.80
2022-09-10T03:04:01.690Z,8.40
2022-09-10T03:06:29.662Z,9.60
2022-09-10T03:08:58.503Z,8.30
2022-09-10T03:11:27.622Z,7.40
2022-09-10T03:13:55.637Z,8.80
2022-09-10T03:16:24.614Z,9.80
2022-09-10T03:18:52.598Z,8.30
2022-09-10T03:21:23.419Z,10.20
2022-09-10T03:23:52.842Z,8.50
2022-09-10T03:26:28.314Z,7.60
2022-09-10T03:28:55.382Z,9.00
2022-09-10T03:31:24.890Z,9.10
2022-09-10T03:33:51.819Z,8.30
2022-09-10T03:36:21.073Z,6.80
2022-09-10T03:38:49.334Z,7.40
2022-09-10T03:41:16.345Z,9.60
2022-09-10T03:43:43.365Z,9.30
2022-09-10T03:46:12.277Z,8.00
2022-09-10T03:48:43.838Z,8.10
2022-09-10T03:51:11.140Z,7.60
2022-09-10T03:53:39.072Z,7.60
2022-09-10T03:56:07.409Z,8.50
2022-09-10T03:58:35.993Z,7.20
2022-09-10T04:01:04.255Z,7.30
2022-09-10T04:03:31.739Z,6.20
2022-09-10T04:05:58.850Z,6.40
2022-09-10T04:08:26.003Z,6.90
2022-09-10T04:10:53.392Z,7.20
2022-09-10T04:13:20.247Z,6.70
2022-09-10T04:15:47.446Z,6.70
2022-09-10T04:18:15.035Z,7.20
2022-09-10T04:20:43.853Z,8.00
2022-09-10T04:23:10.915Z,8.60
2022-09-10T04:25:40.038Z,9.00
2022-09-10T04:28:09.756Z,7.50
2022-09-10T04:30:38.037Z,8.60
2022-09-10T04:33:05.414Z,8.40
2022-09-10T04:35:33.058Z,9.60
2022-09-10T04:38:02.262Z,7.50
2022-09-10T04:40:29.734Z,7.50
2022-09-10T04:42:56.742Z,9.00
2022-09-10T04:45:24.062Z,8.90
2022-09-10T04:47:53.295Z,7.40
2022-09-10T04:50:22.354Z,7.40
2022-09-10T04:53:08.322Z,7.80
2022-09-10T04:55:39.641Z,8.30
